Timeline UpdatesTrip UpdatesNews PostsPvt PostsTravel TipsAdmin PostsConv PostsFollowed PostsChat RequestsBlog PostsPNR Posts

Disclaimer
Search
 
 
Thu Apr 17, 2014 09:59:28 ISTHomeTrainsΣChainsAtlasPNRForumGalleryNewsFAQTripsMembersLoginFeedback
No Recent News for this Train
Other Trains in the News **new
Latest...
.
Fri Jun 22, 2012 (10:25PM)
⇐ Return Journey: Train# 54811

54812/Jodhpur-Bhopal Passenger

Feb 22 2014 (11:36PM)
Change Departure Station:
Change Arrival Station:
Post a Train Travel TipPost a Train Travel Tip **new
Post a Comment/Question/Picture/VideoPost a Comment/Question/Picture/Video
Pantry/Catering
✕ NO Pantry Car
✕ NO Catering
Loco/Rake Reversals
SWM/Sawai Madhopur Junction (4); KOTA/Kota Junction (5);
RSA - Rake Sharing
RSA with 54821/22 bhildi jodhpur passenger
Rake/Coach Composition
LOCO, SLR, GS, GS, GS, S-1, S-2, S-3, GS, GS, GS, GS, GS, GSLRD, STORE DELIVERY VAN
Loco
WDM 2A upto Bina, Bina to Bhopal: WAM 4
News    PNR    Forum    Time-Table    Availability    Fare Chart    Map    Arr/Dep History    Trips    Gallery    ΣChains    X/O    Timeline    
Travel Time: 6h 51m    25 halts    Distance: 244 km    Avg Speed: 35 km/hr
Type: Passenger
Zone: NWR/North Western
Departs @ 03:59 (Avg 45m late)
Platform# ???
SMTWTFS
Pagara/PGA 
Arrives @ 10:50 (Avg 21m late)
Platform# 5
SMTWTFS
Bhopal Junction/BPL 

25 halts. 35 intermediate Stations between Pagara and Bhopal Junction

Show ALL intermediate Stations  Show Old Time-Table

#CodeStation NameX/OArrivesAvgDepartsAvgHaltPFDay#KmSpeedElevZoneAddress
1JUJodhpur Junction (5)  -08:05+1--1-749.328241mNWRJodhpur, Rajasthan
2RKBRaikabagh Palace Junction (2)X  08:10+908:12+202m--1-747.060237mNWRJodhpur, Rajasthan
3BNOBanar  08:24+2208:26+232m--1-735.155213mNWRBanar, Rajasthan
4JWLJajiwalX  08:35+2308:37+242m--1-726.867228mNWRJodhpur, Rajasthan
5AASAsranada  08:45+2408:47+252m--1-718.061251mNWRState Highway 58, Rajasthan
6KSWKheri Salwa  08:56+2508:58+252m--1-708.964269mNWRJajiwal, Rajasthan
7PPRPipar Road Junction  09:04+2709:06+282m--1-702.457272mNWRState Highway 58, Rajasthan
8SWFSathin Road  09:15+2809:17+332m--1-693.862284mNWRUMED, Rajasthan
9UMEDUmedX  09:27+3309:29+352m--1-683.556308mNWRJodhpur, Rajasthan
10KXGKharia Khangarh  09:40+3409:42+362m--1-673.354310mNWRKharia Khangar, Rajasthan
11GOTNGotan  09:50+3609:52+382m--1-666.259323mNWRGotan, Rajasthan
12JOMJogi Magra (1)X  10:02+3810:04+442m11-656.424335mNWRNagaur, Rajasthan
13MTDMerta Road Junction (4)  10:30+2810:35+325m--1-646.0116322mNWRPhalodi, Rajasthan
14KQWKheduli  10:43+3410:45+342m--1-630.617307mNWRRen, Rajasthan
15RENRen  10:52+3510:54+362m--1-628.663307mNWRNagaur, Rajasthan
16JACJalsu  11:07+3511:09+362m--1-614.948321mNWRNagaur, Rajasthan
17JACNJalsu Nanak  11:16+3311:18+332m--1-609.349331mNWRREN, Rajasthan
18DNADegana Junction (4)  11:27+3311:30+353m--1-602.082339mNWRDegana, Rajasthan
19GCHGachhipura  11:41+3711:43+382m--1-586.968362mNWRNagaur, Rajasthan
20BSRLBesroli  11:53+3911:55+432m--1-575.671378mNWRNagaur, Rajasthan
21BOWBorawar  12:05+4312:07+472m--1-563.739403mNWRBesrol, Rajasthan
22MKNMakrana Junction (2)  12:15+4712:17+492m--1-558.557423mNWRMakrana, Rajasthan
23KMNCKuchaman CityX  12:32+4812:34+512m--1-544.441404mNWRPalari, Rajasthan
24THMRThathana Mithri  12:41+4912:43+492m--1-539.651388mNWRNawa City, Rajasthan
25NYKNaya KharadiaX  12:48+4912:50+542m--1-535.336375mNWRMakrana, Rajasthan
26NACNawa City  13:01+5113:03+542m--1-528.850390mNWRNawa, Rajasthan
27GVMRGovindi Marwar  13:14+5313:16+552m--1-519.564373mNWRSambhar Lake, Rajasthan
28GAGudha (1)X  13:26+5613:28+1:032m11-508.846365mNWRPhulera, Rajasthan
29SBRSambhar LakeO  13:38+1:0413:40+1:062m--1-501.15368mNWRSambhar, Rajasthan
30FLPhulera Junction (5)X  15:00+715:05+165m--1-494.074386mNWRPhulera, Rajasthan
31HDAHirnodaX  15:12+2115:13+241m--1-485.340400mNWRJaipur, Rajasthan
32DHNDDhinda  15:19+2315:20+231m--1-481.348386mNWRMDR 59, Rajasthan
33JOBAsalpur JobnerX  15:27+2315:28+241m--1-475.656379mNWRJaipur, Rajasthan
34BOBSBobas  15:36+2415:37+311m--1-468.252396mNWRJaipur, Rajasthan
35SHNXSheo Singh PuraX  15:45+3015:46+301m--1-461.338411mNWRJaipur, Rajasthan
36DNKDhanakya  15:52+3015:53+311m--1-457.546418mNWRJaipur, Rajasthan
37BDYKBindayaka  15:59+3216:00+321m--1-452.952411mNWRJaipur, Rajasthan
38KKUKanakpuraXO  16:06+3216:07+371m--1-447.814429mNWRJaipur, Rajasthan
39JPJaipur Junction (7)XO  16:45+1417:45+760m41-438.949434mNWRJaipur, Rajasthan
40DPADurgapura (3)  17:54+1317:55+151m11-431.533400mNWRJaipur, Rajasthan
41SNGNSanganer  18:04+1418:05+171m11-426.666383mNWRJaipur, Rajasthan
42SASShivdaspura Padampura  18:20+1718:21+181m11-410.075335mNWRJaipur, Rajasthan
43CKSChaksuX  18:32+2218:33+221m--1-396.248319mNWRDist. Jaipur, Rajasthan
44CHNNChannani  18:46+1918:47+201m--1-385.871326mNWRChaksu, Rajasthan
45BNLWBansthali Niwai (2)  18:58+2218:59+221m--1-372.868315mNWRMaharajpura, Rajasthan
46SRASSiras  19:13+2119:14+211m--1-357.061270mNWRIsarda, Rajasthan
47ISAIsarda  19:24+2119:25+211m--1-346.957271mNWRMDR 111, Rajasthan
48SURLSureli  19:34+2119:35+201m--1-338.361258mNWRDevpura, Rajasthan
49CKBChauth ka Barwara (1)X  19:44+2119:45+211m11-329.126272mNWRSawai Madhopur, Rajasthan
50DPZDevpura (1)  20:11+920:12+111m11-318.050271mNWRSawai Madhopur, Rajasthan
51SWMSawai Madhopur Junction (4)O↵¶20:25+2920:40+4515m31-307.253266mWCRSawai Madhopur, Rajasthan
52RWJRawania DungarX  20:59+4521:00+481m--1-290.351266mWCRSawai Madhopur, Rajasthan
53AMLIAmli  21:09+4621:10+481m--1-282.787233mWCRSawai Madhopur, Rajasthan
54IDGIndargarh Sumerganj Mandi (2)  21:19+5221:20+541m--1-269.673247mWCRIndargarh, Rajasthan
55LKELakheri (3)  21:29+5521:30+571m--1-258.667228mWCRBundi, Rajasthan
56KPZKaprenX  21:54+5521:55+571m--1-231.767234mWCRKota - Lalsot Mega Highway, Rajasthan
57KPTNKeshorai PatanO  22:13+5622:14+591m--1-211.526243mWCRSH 33, Rajasthan
58KOTAKota Junction (5)X22:45+5622:55+1:0910m41-198.062256mWCRKota, Rajasthan
59ATHAntah  23:38+1:0823:40+1:092m--1-153.334246mWCRAntah, Rajasthan
60BAZBaran  00:18+5100:20+542m--2-131.743261mWCRBaran, Rajasthan
61ATRUAtru (1)  01:01+4201:03+442m12-102.560288mWCRAtru, Rajasthan
62SYLSalpura  01:17+4201:18+441m--2-88.571311mWCRKawari, Rajasthan
63CAGChhabra Gugor  01:31+4001:33+392m--2-73.032342mWCRBaran, Rajasthan
64RTARuthiyai Junction (2)  02:45+3302:50+435m--2-34.454414mWCRRuthiyai, Madhya Pradesh
65MUGAMahugara  03:05+4203:07+492m--2-20.925501mWCRRuthiyai, Madhya Pradesh
66GUNAGuna Junction (3)X  03:25+4203:35+4610m--2-13.537477mWCRJn Point Indore/Gwalior/Bina/Kota, Madhya Pradesh
67PGA»Pagara»X  03:57+4403:59+452m--20.046494mWCRGuna, Madhya Pradesh
68SHDRShadhoragaon  04:19+4404:21+452m--215.461504mWCRGuna, Madhya Pradesh
69RIKARatikheda  04:29+4604:31+492m--223.548526mWCRGuna, Madhya Pradesh
70ASKNAshok Nagar (2)  04:40+5004:42+542m--230.754502mWCRAshoknagar, Madhya Pradesh
71ORROrr  04:56+5804:58+582m--243.441450mWCRAshoknagar, Madhya Pradesh
72PIAPipraigaon (3)X  05:18+5505:20+582m2257.150451mWCRAshoknagar, Madhya Pradesh
73GVBGuneru Bamori (2)  05:33+5605:35+592m--268.063427mWCRAshoknagar, Madhya Pradesh
74MNVMungaoli (2)  05:43+1:0005:45+1:012m--276.448403mWCRAshoknagar, Madhya Pradesh
75KXBKanjiyaX  05:55+1:0005:57+1:002m--284.482390mWCRMungaoli, Madhya Pradesh
76SRKISemarkheri  06:03+1:0306:05+1:042m--292.638412mWCRBina, Madhya Pradesh
77MDVKMahadeokhedi  06:13+1:0406:15+1:132m--297.719423mWCRBina, Madhya Pradesh
78BINABina Junction (5)  06:40+1:0206:50+1:0110m22105.470414mWCRJn Pt - KATNI/GUNA/ BPL/JHS, Madhya Pradesh
79KIKAKurwai Kethora (2)XO  06:58+1:0807:00+1:102m--2114.753407mWCRBina, Madhya Pradesh
80MABAMandi Bamora (3)X  07:09+1:1007:11+1:112m22122.766413mWCRState Highway 14, Madhya Pradesh
81KAHKalhar (3)X  07:19+1:1007:21+1:112m--2131.566409mWCRSagar, Madhya Pradesh
82BETBareth (4)  07:30+1:1307:32+1:132m--2141.325418mWCRState Highway 19, Madhya Pradesh
83BAQGanj Basoda (4)X  07:56+1:0507:58+1:052m22151.266416mWCRVidisha, Madhya Pradesh
84PAIPabai (3)XO  08:06+1:0708:08+1:082m--2159.972425mWCRVidisha, Madhya Pradesh
85GLGGulabhGanj (3)XO  08:16+1:0808:18+1:082m22169.556432mWCRVidisha, Madhya Pradesh
86SUMRSumer (3)XO  08:26+1:0708:28+1:072m--2177.020417mWCRVidisha, Madhya Pradesh
87BHSVidisha (3)X  09:09+5209:11+522m22190.547432mWCRVidisha, Madhya Pradesh
88SCISanchi (2)X  09:23+5009:25+502m12199.955428mWCRRaisen, Madhya Pradesh
89SMTSalamatpur (3)  09:33+5009:35+502m12207.269437mWCRRaisen, Madhya Pradesh
90DWGDewanGanj (3)X  09:43+5009:45+492m22216.548444mWCRRaisen, Madhya Pradesh
91BVBBhadbhadaghat (1)X  09:56+4709:58+472m12225.345474mWCRBhopal, Madhya Pradesh
92SUWSukhisewaniyan (3)X  10:08+2710:10+272m22232.817508mWCRBhopal, Madhya Pradesh
93BPL•Bhopal Junction (6)•  10:50+21-52244.0-497mWCRBhopal, Madhya Pradesh
Scroll to Top
Scroll to Bottom